Time;durP1;ratioP1;P1;durP2;ratioP2;P2;SDS_P1;SDS_P2;PMS_P1;PMS_P2;Temp;Humidity;BMP_temperature;BMP_pressure;BME280_temperature;BME280_humidity;BME280_pressure;Samples;Min_cycle;Max_cycle;Signal;HPM_P1;HPM_P2
2021/10/27 00:01:33;;;;;;;6.20;3.25;;;6.00;99.90;;;;;;5050251;28;20201;-75
2021/10/27 00:03:59;;;;;;;3.92;3.42;;;6.00;99.90;;;;;;5050182;28;20197;-76
2021/10/27 00:06:26;;;;;;;5.88;3.85;;;6.00;99.90;;;;;;5049489;28;20225;-76
2021/10/27 00:08:53;;;;;;;3.58;3.28;;;6.00;99.90;;;;;;5050492;28;20241;-76
2021/10/27 00:11:20;;;;;;;4.68;3.80;;;5.90;99.90;;;;;;5050768;28;20221;-76
2021/10/27 00:13:46;;;;;;;4.30;3.90;;;5.90;99.90;;;;;;5053910;28;20201;-75
2021/10/27 00:16:15;;;;;;;4.35;3.55;;;5.90;99.90;;;;;;5053620;28;20220;-76
2021/10/27 00:18:41;;;;;;;4.63;3.90;;;5.80;99.90;;;;;;5054213;28;20211;-75
2021/10/27 00:21:08;;;;;;;4.40;3.97;;;5.80;99.90;;;;;;5054133;28;20202;-75
2021/10/27 00:23:35;;;;;;;4.28;3.65;;;5.80;99.90;;;;;;5054385;28;20219;-74
2021/10/27 00:26:02;;;;;;;9.77;4.72;;;5.80;99.90;;;;;;5053773;28;20238;-75
2021/10/27 00:28:28;;;;;;;4.45;3.97;;;5.70;99.90;;;;;;5048594;28;20204;-75
2021/10/27 00:30:55;;;;;;;6.10;3.60;;;5.80;99.90;;;;;;5033410;28;20298;-75
2021/10/27 00:33:23;;;;;;;4.57;3.50;;;5.70;99.90;;;;;;5033520;28;20205;-75
2021/10/27 00:35:50;;;;;;;4.72;3.42;;;5.70;99.90;;;;;;5032840;28;20225;-75
2021/10/27 00:38:17;;;;;;;3.80;3.50;;;5.70;99.90;;;;;;5033560;28;20543;-76
2021/10/27 00:40:43;;;;;;;7.07;3.58;;;5.70;99.90;;;;;;5033061;28;20205;-75
2021/10/27 00:43:10;;;;;;;4.70;3.83;;;5.70;99.90;;;;;;5033524;28;20194;-75
2021/10/27 00:45:37;;;;;;;3.70;3.40;;;5.70;99.90;;;;;;5032834;28;20226;-75
2021/10/27 00:48:04;;;;;;;6.55;3.33;;;5.60;99.90;;;;;;5032972;28;20680;-75
2021/10/27 00:50:33;;;;;;;3.58;3.13;;;5.70;99.90;;;;;;5033174;28;20578;-75
2021/10/27 00:53:00;;;;;;;4.65;3.25;;;5.60;99.90;;;;;;5033081;28;20225;-75
2021/10/27 00:55:27;;;;;;;3.47;3.00;;;5.60;99.90;;;;;;5032907;28;20222;-75
2021/10/27 00:57:55;;;;;;;6.07;4.00;;;5.50;99.90;;;;;;5032624;28;20198;-75
2021/10/27 01:00:22;;;;;;;4.38;3.00;;;5.50;99.90;;;;;;5032877;28;20228;-75
2021/10/27 01:02:48;;;;;;;4.47;3.50;;;5.40;99.90;;;;;;5032824;28;20202;-75
2021/10/27 01:05:16;;;;;;;4.35;3.35;;;5.40;99.90;;;;;;5032786;28;20226;-75
2021/10/27 01:07:45;;;;;;;4.28;3.58;;;5.40;99.90;;;;;;5032225;28;20206;-75
2021/10/27 01:10:12;;;;;;;3.78;3.38;;;5.40;99.90;;;;;;5032950;28;20206;-75
2021/10/27 01:12:39;;;;;;;4.30;3.53;;;5.30;99.90;;;;;;5032726;28;20228;-75
2021/10/27 01:15:07;;;;;;;12.05;4.93;;;5.30;99.90;;;;;;5032695;28;20198;-75
2021/10/27 01:17:34;;;;;;;4.85;3.53;;;5.30;99.90;;;;;;5032006;28;20204;-75
2021/10/27 01:20:04;;;;;;;4.13;3.65;;;5.30;99.90;;;;;;5032875;28;20620;-75
2021/10/27 01:22:33;;;;;;;3.97;3.60;;;5.30;99.90;;;;;;5032757;28;20198;-75
2021/10/27 01:25:01;;;;;;;5.07;3.50;;;5.30;99.90;;;;;;5032210;28;20198;-75
2021/10/27 01:27:29;;;;;;;3.90;3.50;;;5.30;99.90;;;;;;5031992;28;20236;-75
2021/10/27 01:29:56;;;;;;;3.25;2.95;;;5.20;99.90;;;;;;5032318;28;20209;-75
2021/10/27 01:32:26;;;;;;;4.63;3.80;;;5.20;99.90;;;;;;5032362;28;20234;-75
2021/10/27 01:34:53;;;;;;;5.90;4.38;;;5.20;99.90;;;;;;5032465;28;20206;-75
2021/10/27 01:37:22;;;;;;;5.57;3.55;;;5.20;99.90;;;;;;5031754;28;20202;-75
2021/10/27 01:39:50;;;;;;;3.97;3.65;;;5.10;99.90;;;;;;5032377;28;20233;-75
2021/10/27 01:42:16;;;;;;;5.05;3.80;;;5.10;99.90;;;;;;5032274;28;20289;-75
2021/10/27 01:44:45;;;;;;;3.60;3.30;;;5.10;99.90;;;;;;5032046;28;20206;-76
2021/10/27 01:47:11;;;;;;;4.07;3.67;;;5.10;99.90;;;;;;5031492;28;20225;-76
2021/10/27 01:49:38;;;;;;;4.40;3.70;;;5.10;99.90;;;;;;5031932;28;20197;-75
2021/10/27 01:52:05;;;;;;;6.57;4.00;;;5.10;99.90;;;;;;5032076;28;20222;-76
2021/10/27 01:54:34;;;;;;;4.95;4.32;;;5.10;99.90;;;;;;5031884;28;20213;-76
2021/10/27 01:57:01;;;;;;;5.20;3.95;;;5.10;99.90;;;;;;5031516;28;20217;-76
2021/10/27 01:59:28;;;;;;;3.88;3.20;;;5.00;99.90;;;;;;5031641;28;20212;-76
2021/10/27 02:01:55;;;;;;;4.50;3.55;;;5.00;99.90;;;;;;5031652;28;20220;-76
2021/10/27 02:04:22;;;;;;;6.18;3.90;;;5.00;99.90;;;;;;5031855;28;20687;-76
2021/10/27 02:06:49;;;;;;;4.50;3.80;;;5.00;99.90;;;;;;5031003;28;20620;-76
2021/10/27 02:09:16;;;;;;;5.28;3.40;;;5.00;99.90;;;;;;5031880;28;20198;-76
2021/10/27 02:11:44;;;;;;;4.20;3.67;;;5.00;99.90;;;;;;5031630;28;20218;-76
2021/10/27 02:14:11;;;;;;;4.30;3.20;;;4.90;99.90;;;;;;5031725;28;20251;-76
2021/10/27 02:16:38;;;;;;;4.45;3.90;;;4.90;99.90;;;;;;5030918;28;20599;-76
2021/10/27 02:19:06;;;;;;;5.15;4.03;;;4.90;99.90;;;;;;5031644;28;20206;-76
2021/10/27 02:21:32;;;;;;;6.00;4.10;;;4.90;99.90;;;;;;5031625;28;20212;-76
2021/10/27 02:23:59;;;;;;;4.88;4.20;;;4.90;99.90;;;;;;5031544;28;20224;-76
2021/10/27 02:26:26;;;;;;;4.97;3.38;;;4.90;99.90;;;;;;5030833;28;20589;-76
2021/10/27 02:28:54;;;;;;;4.00;3.60;;;4.90;99.90;;;;;;5031068;28;20205;-76
2021/10/27 02:31:21;;;;;;;4.80;4.25;;;4.90;99.90;;;;;;5031341;28;20208;-76
2021/10/27 02:33:49;;;;;;;5.85;4.85;;;4.90;99.90;;;;;;5031160;28;20226;-75
2021/10/27 02:36:16;;;;;;;6.28;4.45;;;4.90;99.90;;;;;;5030727;28;20248;-76
2021/10/27 02:38:43;;;;;;;5.43;4.30;;;4.90;99.90;;;;;;5031078;28;20212;-76
2021/10/27 02:41:11;;;;;;;4.90;4.00;;;4.90;99.90;;;;;;5031326;28;20213;-76
2021/10/27 02:43:38;;;;;;;4.35;3.95;;;4.90;99.90;;;;;;5030948;28;20652;-76
2021/10/27 02:46:06;;;;;;;4.68;4.28;;;4.90;99.90;;;;;;5030401;28;20600;-76
2021/10/27 02:48:33;;;;;;;4.07;3.67;;;4.90;99.90;;;;;;5030994;28;20206;-76
2021/10/27 02:51:00;;;;;;;4.30;3.90;;;4.90;99.90;;;;;;5031211;28;20217;-76
2021/10/27 02:53:27;;;;;;;3.70;3.40;;;4.80;99.90;;;;;;5031000;28;20217;-76
2021/10/27 02:55:53;;;;;;;5.93;4.20;;;4.80;99.90;;;;;;5030130;28;20228;-76
2021/10/27 02:58:20;;;;;;;4.75;4.35;;;4.80;99.90;;;;;;5030763;28;20231;-76
2021/10/27 03:00:47;;;;;;;4.40;4.00;;;4.80;99.90;;;;;;5030766;28;20213;-76
2021/10/27 03:03:15;;;;;;;4.13;3.75;;;4.80;99.90;;;;;;5030838;28;20194;-76
2021/10/27 03:05:42;;;;;;;4.25;3.80;;;4.70;99.90;;;;;;5030748;28;20266;-76
2021/10/27 03:08:08;;;;;;;6.55;3.97;;;4.70;99.90;;;;;;5030657;28;20206;-76
2021/10/27 03:10:35;;;;;;;4.10;3.80;;;4.60;99.90;;;;;;5030693;28;20209;-77
2021/10/27 03:13:02;;;;;;;5.38;4.20;;;4.60;99.90;;;;;;5030823;28;20229;-76
2021/10/27 03:15:29;;;;;;;8.82;4.00;;;4.60;99.90;;;;;;5030428;28;20229;-76
2021/10/27 03:17:55;;;;;;;15.27;6.72;;;4.60;99.90;;;;;;5030477;28;20565;-76
2021/10/27 03:20:24;;;;;;;4.40;4.00;;;4.60;99.90;;;;;;5030692;28;20209;-76
2021/10/27 03:22:50;;;;;;;8.30;4.10;;;4.60;99.90;;;;;;5031316;28;20202;-75
2021/10/27 03:25:17;;;;;;;4.55;4.03;;;4.50;99.90;;;;;;5030397;28;20230;-76
2021/10/27 03:27:44;;;;;;;4.60;4.07;;;4.50;99.90;;;;;;5030190;28;20202;-75
2021/10/27 03:30:11;;;;;;;5.20;4.70;;;4.50;99.90;;;;;;5030441;28;20213;-76
2021/10/27 03:32:38;;;;;;;4.97;4.10;;;4.50;99.90;;;;;;5030714;28;20686;-75
2021/10/27 03:35:05;;;;;;;5.70;4.85;;;4.50;99.90;;;;;;5029192;28;20194;-76
2021/10/27 03:37:33;;;;;;;5.40;4.93;;;4.50;99.90;;;;;;5024878;28;20202;-75
2021/10/27 03:40:00;;;;;;;4.97;4.53;;;4.50;99.90;;;;;;5028149;28;20694;-75
2021/10/27 03:42:27;;;;;;;5.25;4.75;;;4.50;99.90;;;;;;5029888;28;20198;-75
2021/10/27 03:44:54;;;;;;;5.55;4.30;;;4.50;99.90;;;;;;5030427;28;20572;-76
2021/10/27 03:47:21;;;;;;;6.40;4.57;;;4.50;99.90;;;;;;5032264;28;20201;-76
2021/10/27 03:49:48;;;;;;;5.63;4.60;;;4.40;99.90;;;;;;5034694;28;20201;-76
2021/10/27 03:52:15;;;;;;;5.60;3.83;;;4.40;99.90;;;;;;5034315;28;20218;-75
2021/10/27 03:54:43;;;;;;;7.00;4.93;;;4.40;99.90;;;;;;5034477;28;20206;-76
2021/10/27 03:57:10;;;;;;;4.45;4.05;;;4.40;99.90;;;;;;5034337;28;20606;-75
2021/10/27 03:59:37;;;;;;;5.00;4.30;;;4.40;99.90;;;;;;5033844;28;20556;-76
2021/10/27 04:02:04;;;;;;;5.05;3.90;;;4.40;99.90;;;;;;5034304;28;20213;-76
2021/10/27 04:04:31;;;;;;;7.35;5.10;;;4.40;99.90;;;;;;5034170;28;20544;-76
2021/10/27 04:06:58;;;;;;;4.80;4.30;;;4.40;99.90;;;;;;5033900;28;20228;-75
2021/10/27 04:09:25;;;;;;;5.72;4.50;;;4.40;99.90;;;;;;5034070;28;20312;-75
2021/10/27 04:11:53;;;;;;;5.25;4.50;;;4.40;99.90;;;;;;5034040;28;20205;-75
2021/10/27 04:14:20;;;;;;;6.95;4.75;;;4.40;99.90;;;;;;5033815;28;20252;-75
2021/10/27 04:16:47;;;;;;;5.90;4.85;;;4.40;99.90;;;;;;5033614;28;20700;-75
2021/10/27 04:19:13;;;;;;;5.50;4.50;;;4.30;99.90;;;;;;5033675;28;20665;-75
2021/10/27 04:21:40;;;;;;;6.13;4.28;;;4.40;99.90;;;;;;5034080;28;20201;-76
2021/10/27 04:24:07;;;;;;;5.40;4.60;;;4.30;99.90;;;;;;5034248;28;20221;-75
2021/10/27 04:26:34;;;;;;;5.18;4.50;;;4.40;99.90;;;;;;5033465;28;20230;-75
2021/10/27 04:29:03;;;;;;;5.32;4.82;;;4.30;99.90;;;;;;5033927;28;20244;-75
2021/10/27 04:31:30;;;;;;;4.68;4.18;;;4.30;99.90;;;;;;5033906;28;20212;-76
2021/10/27 04:33:57;;;;;;;5.57;5.00;;;4.30;99.90;;;;;;5033392;28;20283;-75
2021/10/27 04:36:23;;;;;;;5.03;4.50;;;4.30;99.90;;;;;;5032923;28;20225;-75
2021/10/27 04:38:50;;;;;;;5.00;4.25;;;4.30;99.90;;;;;;5033366;28;20574;-75
2021/10/27 04:41:17;;;;;;;4.88;4.25;;;4.30;99.90;;;;;;5033502;28;20320;-75
2021/10/27 04:43:44;;;;;;;5.95;4.85;;;4.30;99.90;;;;;;5033219;28;20202;-75
2021/10/27 04:46:12;;;;;;;5.18;4.30;;;4.20;99.90;;;;;;5032440;28;20735;-75
2021/10/27 04:48:39;;;;;;;12.32;4.25;;;4.20;99.90;;;;;;5033292;28;20680;-75
2021/10/27 04:51:05;;;;;;;5.88;4.93;;;4.20;99.90;;;;;;5033231;28;20210;-75
2021/10/27 04:53:32;;;;;;;5.38;4.88;;;4.20;99.90;;;;;;5033304;28;20591;-75
2021/10/27 04:55:59;;;;;;;6.25;5.43;;;4.10;99.90;;;;;;5032550;28;20233;-75
2021/10/27 04:58:27;;;;;;;5.75;4.40;;;4.10;99.90;;;;;;5031955;28;20272;-75
2021/10/27 05:07:15;;;;;;;5.10;4.60;;;4.10;99.90;;;;;;5070410;28;20224;-69
2021/10/27 05:09:42;;;;;;;5.25;4.53;;;4.00;99.90;;;;;;5073997;28;20204;-68
2021/10/27 05:12:10;;;;;;;6.40;4.53;;;4.10;99.90;;;;;;5073689;28;20577;-69
2021/10/27 05:14:38;;;;;;;5.30;4.50;;;4.00;99.90;;;;;;5073572;28;20224;-69
2021/10/27 05:17:09;;;;;;;5.45;4.30;;;4.00;99.90;;;;;;5073469;28;20224;-69
2021/10/27 05:19:36;;;;;;;5.38;4.88;;;4.00;99.90;;;;;;5073867;28;20204;-69
2021/10/27 05:22:03;;;;;;;5.20;4.38;;;4.00;99.90;;;;;;5073743;28;20204;-69
2021/10/27 05:24:31;;;;;;;4.45;4.05;;;4.00;99.90;;;;;;5073645;28;20602;-69
2021/10/27 05:26:58;;;;;;;4.60;4.20;;;4.00;99.90;;;;;;5072989;28;20247;-69
2021/10/27 05:29:25;;;;;;;5.05;4.28;;;3.90;99.90;;;;;;5073634;28;20204;-69
2021/10/27 05:31:52;;;;;;;4.68;4.05;;;3.90;99.90;;;;;;5073814;28;20200;-69
2021/10/27 05:34:19;;;;;;;4.75;4.25;;;3.90;99.90;;;;;;5073342;28;20216;-69
2021/10/27 05:36:46;;;;;;;5.40;4.75;;;3.90;99.90;;;;;;5072717;28;20631;-69
2021/10/27 05:39:13;;;;;;;5.15;4.20;;;3.90;99.90;;;;;;5073264;28;20197;-69
2021/10/27 05:41:43;;;;;;;5.25;4.40;;;3.90;99.90;;;;;;5073257;28;20682;-69
2021/10/27 05:44:11;;;;;;;5.05;4.45;;;3.80;99.90;;;;;;5073494;28;20196;-69
2021/10/27 05:46:38;;;;;;;6.18;4.20;;;3.80;99.90;;;;;;5072346;28;20557;-69
2021/10/27 05:49:11;;;;;;;5.60;4.40;;;3.80;99.90;;;;;;5073298;28;20200;-68
2021/10/27 05:51:42;;;;;;;6.68;4.70;;;3.80;99.90;;;;;;5072794;28;20584;-68
2021/10/27 05:56:55;;;;;;;6.40;5.40;;;3.80;99.90;;;;;;5084385;28;20199;-69
2021/10/27 05:59:21;;;;;;;5.03;4.53;;;3.80;99.90;;;;;;5083793;28;20200;-69
2021/10/27 06:01:48;;;;;;;5.20;4.70;;;3.80;99.90;;;;;;5072824;28;20197;-69
2021/10/27 06:04:16;;;;;;;5.35;4.85;;;3.80;99.90;;;;;;5072650;28;20632;-69
2021/10/27 06:06:42;;;;;;;5.32;4.70;;;3.80;99.90;;;;;;5071633;28;20315;-69
2021/10/27 06:09:09;;;;;;;5.57;4.90;;;3.80;99.90;;;;;;5072199;28;20204;-69
2021/10/27 06:11:37;;;;;;;8.00;4.82;;;3.70;99.90;;;;;;5072128;28;20212;-69
2021/10/27 06:14:05;;;;;;;7.13;5.38;;;3.80;99.90;;;;;;5072805;28;20220;-69
2021/10/27 06:16:32;;;;;;;6.75;5.13;;;3.80;99.90;;;;;;5071339;28;20221;-69
2021/10/27 06:18:59;;;;;;;6.05;5.45;;;3.80;99.90;;;;;;5072402;28;20196;-69
2021/10/27 06:21:26;;;;;;;7.10;5.47;;;3.80;99.90;;;;;;5072297;28;20562;-68
2021/10/27 06:23:53;;;;;;;6.35;5.35;;;3.80;99.90;;;;;;5071889;28;20538;-69
2021/10/27 06:26:20;;;;;;;7.07;5.10;;;3.80;99.90;;;;;;5071121;28;20707;-69
2021/10/27 06:28:56;;;;;;;5.45;4.95;;;3.90;99.90;;;;;;5072085;28;20234;-69
2021/10/27 06:31:30;;;;;;;5.82;5.15;;;3.90;99.90;;;;;;5071955;28;20200;-68
2021/10/27 06:34:02;;;;;;;5.90;5.30;;;3.90;99.90;;;;;;5065642;28;20224;-69
2021/10/27 06:36:34;;;;;;;5.22;4.72;;;3.90;99.90;;;;;;5067616;28;20722;-69
2021/10/27 06:39:24;;;;;;;7.97;6.00;;;4.00;99.90;;;;;;5068623;28;20320;-69
2021/10/27 06:47:24;;;;;;;7.38;5.35;;;4.20;99.90;;;;;;5064017;28;20214;-69
2021/10/27 06:49:51;;;;;;;6.68;5.70;;;4.30;99.90;;;;;;5071219;28;20214;-69
2021/10/27 06:52:18;;;;;;;5.90;5.00;;;4.30;99.90;;;;;;5071051;28;20598;-69
2021/10/27 06:54:48;;;;;;;8.02;6.63;;;4.40;99.90;;;;;;5070798;28;20224;-69
2021/10/27 06:57:17;;;;;;;7.95;5.47;;;4.50;99.90;;;;;;5070788;28;20208;-69
2021/10/27 06:59:44;;;;;;;6.35;5.45;;;4.60;99.90;;;;;;5070997;28;20196;-69
2021/10/27 07:02:47;;;;;;;7.25;6.20;;;4.80;99.90;;;;;;5069239;28;20926;-69
2021/10/27 07:05:35;;;;;;;8.43;6.47;;;4.90;99.90;;;;;;5070915;28;20224;-69
2021/10/27 07:16:14;;;;;;;12.65;5.95;;;5.40;99.90;;;;;;5070411;28;20215;-69
2021/10/27 07:18:41;;;;;;;7.45;6.75;;;5.60;99.90;;;;;;5070898;28;20206;-68
2021/10/27 07:21:10;;;;;;;7.50;6.68;;;5.70;99.90;;;;;;5069916;28;20295;-69
2021/10/27 07:23:39;;;;;;;8.57;7.30;;;5.90;99.90;;;;;;5071040;28;20219;-68
2021/10/27 07:26:06;;;;;;;7.05;6.35;;;6.00;99.90;;;;;;5070214;28;20216;-68
2021/10/27 07:28:33;;;;;;;8.45;7.00;;;6.20;99.90;;;;;;5071235;28;20208;-68
2021/10/27 07:31:03;;;;;;;7.97;7.05;;;6.40;99.90;;;;;;5071181;28;20227;-68
2021/10/27 07:33:30;;;;;;;8.02;7.05;;;6.60;99.90;;;;;;5070692;28;20224;-69
2021/10/27 07:36:01;;;;;;;7.68;6.32;;;6.90;99.90;;;;;;5070817;28;20216;-68
2021/10/27 07:41:14;;;;;;;7.45;6.65;;;7.70;99.90;;;;;;5071130;28;20200;-69
2021/10/27 07:43:42;;;;;;;10.18;7.05;;;8.10;99.90;;;;;;5070622;28;20224;-69
2021/10/27 07:46:09;;;;;;;7.10;6.50;;;8.40;99.90;;;;;;5069454;28;20277;-69
2021/10/27 07:48:36;;;;;;;7.18;6.40;;;8.70;99.90;;;;;;5070275;28;20696;-69
2021/10/27 07:51:02;;;;;;;7.88;6.50;;;9.00;99.90;;;;;;5070000;28;20200;-69
2021/10/27 07:53:31;;;;;;;9.70;6.72;;;9.30;99.90;;;;;;5069854;28;20217;-69
2021/10/27 07:56:00;;;;;;;7.90;5.80;;;9.60;99.90;;;;;;5069198;28;20645;-69
2021/10/27 07:58:27;;;;;;;8.93;6.35;;;9.90;99.90;;;;;;5069924;28;20215;-69
2021/10/27 08:00:57;;;;;;;7.85;7.05;;;10.20;99.90;;;;;;5069995;28;20573;-69
2021/10/27 08:03:23;;;;;;;7.53;6.93;;;10.40;99.90;;;;;;5069866;28;20284;-69
2021/10/27 08:05:51;;;;;;;6.00;5.50;;;10.60;99.90;;;;;;5069325;28;20231;-69
2021/10/27 08:08:21;;;;;;;6.18;5.55;;;10.80;99.90;;;;;;5069780;28;20219;-69
2021/10/27 08:10:49;;;;;;;7.95;6.25;;;11.00;99.90;;;;;;5070263;28;20211;-69
2021/10/27 08:13:16;;;;;;;6.57;5.97;;;11.10;99.90;;;;;;5069746;28;20196;-70
2021/10/27 08:15:43;;;;;;;9.85;6.80;;;11.40;99.90;;;;;;5069917;28;20217;-69
2021/10/27 08:18:12;;;;;;;5.93;5.43;;;11.50;99.90;;;;;;5069062;28;20207;-69
2021/10/27 08:20:39;;;;;;;7.32;6.63;;;11.80;99.90;;;;;;5070071;28;20204;-69
2021/10/27 08:23:09;;;;;;;9.68;6.40;;;12.00;99.90;;;;;;5068932;28;20208;-69
2021/10/27 08:25:40;;;;;;;7.40;5.45;;;12.30;99.90;;;;;;5070044;28;20706;-69
2021/10/27 08:28:11;;;;;;;6.65;5.93;;;12.60;99.90;;;;;;5069770;28;20523;-69
2021/10/27 08:30:43;;;;;;;8.68;5.80;;;12.70;99.90;;;;;;5065376;28;21299;-69
2021/10/27 08:33:19;;;;;;;6.10;5.33;;;12.90;99.90;;;;;;5068485;28;20203;-69
2021/10/27 08:35:46;;;;;;;5.87;4.97;;;13.20;99.90;;;;;;5072393;28;20466;-69
2021/10/27 08:38:13;;;;;;;6.40;5.80;;;13.40;99.90;;;;;;5071418;28;20541;-69
2021/10/27 08:40:42;;;;;;;6.30;5.17;;;13.60;99.90;;;;;;5053344;28;20459;-69
2021/10/27 08:43:11;;;;;;;5.30;4.80;;;13.80;99.90;;;;;;5072860;28;20477;-69
2021/10/27 08:45:38;;;;;;;5.60;5.10;;;14.00;99.90;;;;;;5072034;28;20810;-69
2021/10/27 08:48:08;;;;;;;8.23;5.70;;;14.10;99.90;;;;;;5072379;28;20450;-69
2021/10/27 08:50:35;;;;;;;6.53;5.47;;;14.20;99.90;;;;;;5070347;28;20447;-69
2021/10/27 08:53:03;;;;;;;6.47;5.70;;;14.20;99.90;;;;;;5072623;28;20454;-69
2021/10/27 08:55:29;;;;;;;5.83;4.90;;;14.30;99.90;;;;;;5072893;28;20490;-69
2021/10/27 08:57:57;;;;;;;7.60;5.30;;;14.40;99.90;;;;;;5072240;28;20465;-69
2021/10/27 09:00:29;;;;;;;5.90;5.10;;;14.50;99.90;;;;;;5067664;28;20458;-69
2021/10/27 09:05:55;;;;;;;6.10;5.47;;;14.80;99.90;;;;;;5071106;28;20868;-69
2021/10/27 09:40:01;;;;;;;7.70;5.50;;;16.20;99.90;;;;;;5071584;28;20445;-69
2021/10/27 10:05:11;;;;;;;7.27;5.73;;;17.60;99.90;;;;;;5070764;28;20489;-69
2021/10/27 10:07:40;;;;;;;5.47;4.97;;;17.90;99.90;;;;;;5070757;28;20520;-69
2021/10/27 10:10:10;;;;;;;5.80;5.30;;;18.20;99.90;;;;;;5070872;28;21038;-69
2021/10/27 10:12:39;;;;;;;5.33;4.83;;;18.70;99.90;;;;;;5071231;28;20458;-69
2021/10/27 10:15:06;;;;;;;5.30;4.70;;;18.80;99.90;;;;;;5070588;28;20489;-69
2021/10/27 10:17:35;;;;;;;6.43;5.50;;;19.10;99.90;;;;;;5070708;28;20446;-69
2021/10/27 10:20:02;;;;;;;5.83;4.87;;;19.30;99.90;;;;;;5071128;28;20485;-69
2021/10/27 10:22:33;;;;;;;6.90;5.97;;;19.40;99.90;;;;;;5070759;28;20462;-69
2021/10/27 10:25:33;;;;;;;5.87;5.27;;;19.60;99.90;;;;;;5071143;28;20465;-69
2021/10/27 10:28:16;;;;;;;5.93;4.97;;;19.90;99.90;;;;;;5070222;28;20462;-69
2021/10/27 10:30:48;;;;;;;5.40;4.90;;;20.20;99.90;;;;;;5071215;28;20458;-69
2021/10/27 10:33:16;;;;;;;5.50;4.97;;;20.40;99.90;;;;;;5070719;28;20490;-69
2021/10/27 10:35:58;;;;;;;10.10;5.03;;;20.40;99.90;;;;;;5068951;28;20487;-69
2021/10/27 10:38:33;;;;;;;5.77;5.27;;;20.50;99.90;;;;;;5071022;28;20493;-69
2021/10/27 10:41:17;;;;;;;4.70;4.30;;;20.70;99.90;;;;;;5069977;28;20545;-69
2021/10/27 11:15:13;;;;;;;4.83;4.20;;;22.70;99.90;;;;;;5087576;28;20441;-96
2021/10/27 11:39:47;;;;;;;6.17;4.80;;;24.00;99.40;;;;;;5049703;28;20518;-72
2021/10/27 11:42:25;;;;;;;5.37;4.63;;;24.00;99.60;;;;;;5049907;28;20522;-72
2021/10/27 11:44:58;;;;;;;5.50;4.40;;;24.10;99.50;;;;;;5049172;28;20573;-72
2021/10/27 11:47:37;;;;;;;4.63;4.23;;;24.00;99.70;;;;;;5049270;28;20514;-72
2021/10/27 11:50:06;;;;;;;5.80;5.00;;;24.00;99.20;;;;;;5049330;28;20839;-72
2021/10/27 11:52:36;;;;;;;5.37;4.87;;;24.00;99.10;;;;;;5049790;28;20459;-72
2021/10/27 11:55:05;;;;;;;6.03;4.87;;;23.90;99.10;;;;;;5048976;28;20459;-72
2021/10/27 11:57:32;;;;;;;5.50;4.77;;;23.90;99.10;;;;;;5048903;28;20459;-72
2021/10/27 12:00:01;;;;;;;4.60;4.00;;;23.80;99.10;;;;;;5049176;28;20459;-73
2021/10/27 12:02:49;;;;;;;6.67;5.00;;;23.50;99.10;;;;;;5049095;28;20462;-72
2021/10/27 12:05:24;;;;;;;6.27;4.80;;;23.20;99.00;;;;;;5069363;28;20569;-72
2021/10/27 12:08:16;;;;;;;4.80;4.10;;;23.00;99.10;;;;;;5069491;28;20523;-72
2021/10/27 12:10:57;;;;;;;4.57;4.10;;;22.90;99.50;;;;;;5073226;28;20465;-72
2021/10/27 12:13:39;;;;;;;4.50;4.10;;;22.90;99.50;;;;;;5072763;28;20462;-72
2021/10/27 12:19:00;;;;;;;4.43;3.67;;;22.20;99.40;;;;;;5072450;28;20449;-72
2021/10/27 12:21:28;;;;;;;4.43;3.43;;;21.90;99.40;;;;;;5070021;28;20553;-72
2021/10/27 12:23:56;;;;;;;5.50;3.87;;;21.80;99.90;;;;;;5072291;28;20450;-72
2021/10/27 12:26:24;;;;;;;7.07;3.83;;;21.60;99.90;;;;;;5071864;28;20482;-72
2021/10/27 12:29:07;;;;;;;6.97;3.87;;;21.50;99.90;;;;;;5070106;28;20465;-72
2021/10/27 12:31:34;;;;;;;5.30;3.53;;;21.40;99.90;;;;;;5052512;28;20550;-72
2021/10/27 12:34:02;;;;;;;3.67;3.27;;;21.30;99.90;;;;;;5052102;28;20788;-72
2021/10/27 12:36:37;;;;;;;4.90;3.33;;;21.20;99.90;;;;;;5051540;28;20476;-72
2021/10/27 12:39:17;;;;;;;4.83;3.80;;;21.10;99.90;;;;;;5051994;28;20793;-72
2021/10/27 12:41:57;;;;;;;4.10;3.80;;;21.10;99.90;;;;;;5052242;28;20459;-73
2021/10/27 12:44:26;;;;;;;4.03;3.10;;;20.90;99.90;;;;;;5052393;28;20455;-72
2021/10/27 12:47:13;;;;;;;4.73;3.60;;;20.80;99.90;;;;;;5051482;28;20923;-72
2021/10/27 12:49:44;;;;;;;6.37;3.43;;;20.80;99.90;;;;;;5052567;28;20999;-72
2021/10/27 12:52:25;;;;;;;4.73;3.87;;;20.60;99.90;;;;;;5051983;28;20471;-72
2021/10/27 12:55:17;;;;;;;5.00;3.97;;;20.50;99.90;;;;;;5051788;28;20954;-72
2021/10/27 12:57:46;;;;;;;5.27;3.73;;;20.50;99.90;;;;;;5051561;28;20463;-72
2021/10/27 13:00:20;;;;;;;4.67;4.27;;;20.40;99.90;;;;;;5051953;28;20828;-72
2021/10/27 13:03:00;;;;;;;4.80;3.23;;;20.30;99.90;;;;;;5051954;28;20495;-72
2021/10/27 13:05:32;;;;;;;4.80;2.90;;;20.20;99.90;;;;;;5051889;28;20497;-72
2021/10/27 13:08:06;;;;;;;3.67;2.80;;;20.20;99.90;;;;;;5051500;28;20489;-72
2021/10/27 13:10:43;;;;;;;5.33;3.43;;;20.20;99.90;;;;;;5051869;28;20459;-72
2021/10/27 13:16:08;;;;;;;2.23;1.73;;;20.10;99.90;;;;;;5049411;28;20459;-72
2021/10/27 13:21:41;;;;;;;2.23;2.03;;;20.00;99.90;;;;;;5041230;28;20988;-72
2021/10/27 13:29:43;;;;;;;2.77;1.77;;;20.10;99.60;;;;;;5052080;28;20438;-72
2021/10/27 13:32:15;;;;;;;1.97;1.30;;;20.10;99.50;;;;;;5051373;28;20470;-72
2021/10/27 13:34:42;;;;;;;2.47;1.60;;;20.00;98.90;;;;;;5052198;28;20491;-72
2021/10/27 13:37:11;;;;;;;2.20;2.00;;;20.10;98.60;;;;;;5050616;28;20898;-72
2021/10/27 13:39:38;;;;;;;4.70;2.20;;;20.00;98.70;;;;;;5050530;28;20459;-72
2021/10/27 13:42:10;;;;;;;2.60;1.87;;;20.00;98.90;;;;;;5050569;28;20466;-70
2021/10/27 13:44:43;;;;;;;3.20;2.40;;;20.00;99.10;;;;;;5051140;28;20458;-71
2021/10/27 13:47:21;;;;;;;3.60;2.50;;;19.90;99.10;;;;;;5050045;28;20487;-71
2021/10/27 13:49:56;;;;;;;4.17;2.70;;;19.90;99.30;;;;;;5051352;28;20459;-71
2021/10/27 13:58:01;;;;;;;2.93;2.20;;;19.60;99.80;;;;;;5050545;28;20447;-71
2021/10/27 14:06:14;;;;;;;5.03;3.30;;;19.60;99.90;;;;;;5049544;28;20534;-71
2021/10/27 14:08:47;;;;;;;3.80;3.40;;;19.50;99.90;;;;;;5050489;28;20534;-71
2021/10/27 14:11:20;;;;;;;3.33;3.00;;;19.40;99.90;;;;;;5050656;28;20458;-71
2021/10/27 14:14:02;;;;;;;3.63;3.23;;;19.30;99.90;;;;;;5050494;28;20824;-71
2021/10/27 14:16:53;;;;;;;3.90;3.10;;;19.20;99.90;;;;;;5049397;28;20518;-71
2021/10/27 15:19:59;;;;;;;4.10;3.27;;;16.30;99.90;;;;;;5049208;28;20532;-71
2021/10/27 15:22:39;;;;;;;3.80;3.50;;;16.00;99.90;;;;;;5048921;28;20474;-71
2021/10/27 15:25:30;;;;;;;3.07;2.80;;;15.80;99.90;;;;;;5048266;28;20554;-71
2021/10/27 15:31:23;;;;;;;5.27;4.07;;;15.20;99.90;;;;;;5026592;28;20531;-71
2021/10/27 15:34:07;;;;;;;3.70;3.40;;;14.90;99.90;;;;;;5025716;28;20547;-72
2021/10/27 15:37:02;;;;;;;5.63;3.23;;;14.70;99.90;;;;;;5056273;28;20486;-71
2021/10/27 15:45:19;;;;;;;4.63;3.40;;;14.10;99.90;;;;;;5061974;28;20474;-71
2021/10/27 15:50:46;;;;;;;4.30;2.77;;;13.70;99.90;;;;;;5072185;28;20445;-71
2021/10/27 15:53:13;;;;;;;2.90;2.60;;;13.50;99.90;;;;;;5072474;28;20500;-71
2021/10/27 15:55:40;;;;;;;5.20;2.60;;;13.40;99.90;;;;;;5072961;28;20565;-71
2021/10/27 15:58:07;;;;;;;3.43;2.70;;;13.30;99.90;;;;;;5072452;28;20454;-71
2021/10/27 16:00:38;;;;;;;3.20;2.83;;;13.10;99.90;;;;;;5072743;28;20466;-71
2021/10/27 16:03:07;;;;;;;5.10;2.90;;;13.00;99.90;;;;;;5072913;28;20450;-71
2021/10/27 16:05:38;;;;;;;3.80;2.63;;;12.80;99.90;;;;;;5072713;28;20578;-71
2021/10/27 16:08:06;;;;;;;4.13;2.83;;;12.70;99.90;;;;;;5072690;28;20466;-71
2021/10/27 16:10:34;;;;;;;4.33;2.93;;;12.60;99.90;;;;;;5073158;28;20469;-71
2021/10/27 16:13:02;;;;;;;4.55;2.75;;;12.40;99.90;;;;;;5072976;28;20834;-71
2021/10/27 16:15:37;;;;;;;3.95;2.53;;;12.30;99.90;;;;;;5072776;28;20597;-71
2021/10/27 16:18:06;;;;;;;3.10;2.80;;;12.20;99.90;;;;;;5071909;28;20211;-72
2021/10/27 16:20:33;;;;;;;2.72;2.42;;;12.10;99.90;;;;;;5072879;28;20946;-72
2021/10/27 16:23:00;;;;;;;3.20;2.85;;;12.00;99.90;;;;;;5071995;28;20200;-71
2021/10/27 16:25:27;;;;;;;5.15;3.35;;;11.90;99.90;;;;;;5072236;28;20270;-71
2021/10/27 16:27:55;;;;;;;3.75;3.35;;;11.80;99.90;;;;;;5071796;28;20200;-71
2021/10/27 16:30:22;;;;;;;4.53;3.22;;;11.50;99.90;;;;;;5071848;28;20219;-71
2021/10/27 16:32:48;;;;;;;5.55;3.50;;;11.40;99.90;;;;;;5072982;28;20200;-71
2021/10/27 16:35:17;;;;;;;5.90;3.38;;;11.30;99.90;;;;;;5070379;28;20699;-71
2021/10/27 16:37:44;;;;;;;6.35;3.72;;;11.20;99.90;;;;;;5072562;28;20579;-71
2021/10/27 16:40:11;;;;;;;6.28;3.85;;;11.10;99.90;;;;;;5068923;28;20295;-71
2021/10/27 16:42:39;;;;;;;4.00;3.50;;;11.00;99.90;;;;;;5071499;28;20287;-71
2021/10/27 16:45:07;;;;;;;5.50;4.13;;;10.90;99.90;;;;;;5072795;28;20209;-71
2021/10/27 16:47:34;;;;;;;19.63;8.25;;;10.90;99.90;;;;;;5072393;28;20668;-71
2021/10/27 16:50:01;;;;;;;20.02;12.23;;;10.80;99.90;;;;;;5075626;28;20204;-71
2021/10/27 16:52:30;;;;;;;21.33;13.75;;;10.70;99.90;;;;;;5073285;28;20203;-71
2021/10/27 16:54:57;;;;;;;19.90;13.10;;;10.60;99.90;;;;;;5074677;28;20496;-72
2021/10/27 16:57:36;;;;;;;18.58;12.75;;;10.50;99.90;;;;;;5070908;28;20490;-72
2021/10/27 17:00:05;;;;;;;13.95;8.95;;;10.40;99.90;;;;;;5070482;28;20283;-72